sensor_id;sensor_type;location;lat;lon;timestamp;pressure;altitude;pressure_sealevel;temperature
70819;BMP280;58439;51.046;13.692;2022-10-26T00:07:08;100383.66;;;8.59
70819;BMP280;58439;51.046;13.692;2022-10-26T00:23:14;100396.91;;;8.80
70819;BMP280;58439;51.046;13.692;2022-10-26T00:25:41;100400.66;;;8.77
70819;BMP280;58439;51.046;13.692;2022-10-26T00:28:08;100402.81;;;8.74
70819;BMP280;58439;51.046;13.692;2022-10-26T00:30:38;100397.13;;;8.70
70819;BMP280;58439;51.046;13.692;2022-10-26T00:33:11;100399.25;;;8.67
70819;BMP280;58439;51.046;13.692;2022-10-26T00:35:39;100407.88;;;8.67
70819;BMP280;58439;51.046;13.692;2022-10-26T00:38:12;100403.31;;;8.69
70819;BMP280;58439;51.046;13.692;2022-10-26T00:40:39;100405.47;;;8.66
70819;BMP280;58439;51.046;13.692;2022-10-26T00:45:54;100393.94;;;8.52
70819;BMP280;58439;51.046;13.692;2022-10-26T00:48:30;100395.25;;;8.48
70819;BMP280;58439;51.046;13.692;2022-10-26T00:51:07;100394.13;;;8.42
70819;BMP280;58439;51.046;13.692;2022-10-26T00:53:35;100394.78;;;8.36
70819;BMP280;58439;51.046;13.692;2022-10-26T00:56:03;100396.63;;;8.27
70819;BMP280;58439;51.046;13.692;2022-10-26T00:58:31;100393.53;;;8.24
70819;BMP280;58439;51.046;13.692;2022-10-26T01:01:00;100394.63;;;8.30
70819;BMP280;58439;51.046;13.692;2022-10-26T01:03:29;100404.75;;;8.33
70819;BMP280;58439;51.046;13.692;2022-10-26T01:05:58;100402.94;;;8.33
70819;BMP280;58439;51.046;13.692;2022-10-26T01:08:26;100398.41;;;8.27
70819;BMP280;58439;51.046;13.692;2022-10-26T01:10:57;100399.25;;;8.19
70819;BMP280;58439;51.046;13.692;2022-10-26T01:13:27;100396.97;;;8.16
70819;BMP280;58439;51.046;13.692;2022-10-26T01:19:51;100386.38;;;8.18
70819;BMP280;58439;51.046;13.692;2022-10-26T01:22:28;100391.44;;;8.11
70819;BMP280;58439;51.046;13.692;2022-10-26T01:25:13;100384.28;;;8.13
70819;BMP280;58439;51.046;13.692;2022-10-26T01:27:45;100387.06;;;8.12
70819;BMP280;58439;51.046;13.692;2022-10-26T01:30:35;100384.44;;;8.12
70819;BMP280;58439;51.046;13.692;2022-10-26T01:36:38;100391.59;;;8.10
70819;BMP280;58439;51.046;13.692;2022-10-26T01:39:18;100395.03;;;8.02
70819;BMP280;58439;51.046;13.692;2022-10-26T01:41:58;100388.50;;;7.98
70819;BMP280;58439;51.046;13.692;2022-10-26T01:44:35;100388.19;;;7.93
70819;BMP280;58439;51.046;13.692;2022-10-26T01:47:14;100380.22;;;7.94
70819;BMP280;58439;51.046;13.692;2022-10-26T01:49:47;100390.31;;;7.97
70819;BMP280;58439;51.046;13.692;2022-10-26T01:52:18;100387.69;;;7.97
70819;BMP280;58439;51.046;13.692;2022-10-26T01:54:46;100386.91;;;7.97
70819;BMP280;58439;51.046;13.692;2022-10-26T01:57:18;100390.31;;;7.97
70819;BMP280;58439;51.046;13.692;2022-10-26T02:00:34;100379.75;;;7.91
70819;BMP280;58439;51.046;13.692;2022-10-26T02:15:34;100390.13;;;7.83
70819;BMP280;58439;51.046;13.692;2022-10-26T02:18:30;100383.50;;;7.80
70819;BMP280;58439;51.046;13.692;2022-10-26T02:21:08;100378.94;;;7.74
70819;BMP280;58439;51.046;13.692;2022-10-26T02:23:45;100376.03;;;7.69
70819;BMP280;58439;51.046;13.692;2022-10-26T02:32:01;100367.69;;;7.73
70819;BMP280;58439;51.046;13.692;2022-10-26T03:10:45;100366.41;;;7.69
70819;BMP280;58439;51.046;13.692;2022-10-26T03:13:39;100364.28;;;7.65
70819;BMP280;58439;51.046;13.692;2022-10-26T03:16:07;100372.44;;;7.70
70819;BMP280;58439;51.046;13.692;2022-10-26T03:18:34;100365.44;;;7.70
70819;BMP280;58439;51.046;13.692;2022-10-26T03:21:53;100370.00;;;7.68
70819;BMP280;58439;51.046;13.692;2022-10-26T03:44:59;100371.63;;;7.69
70819;BMP280;58439;51.046;13.692;2022-10-26T03:51:53;100369.34;;;7.66
70819;BMP280;58439;51.046;13.692;2022-10-26T03:54:21;100369.34;;;7.66
70819;BMP280;58439;51.046;13.692;2022-10-26T03:56:48;100382.03;;;7.69
70819;BMP280;58439;51.046;13.692;2022-10-26T03:59:21;100366.59;;;7.68
70819;BMP280;58439;51.046;13.692;2022-10-26T04:01:54;100374.72;;;7.65
70819;BMP280;58439;51.046;13.692;2022-10-26T04:04:24;100365.41;;;7.62
70819;BMP280;58439;51.046;13.692;2022-10-26T04:06:51;100365.09;;;7.65
70819;BMP280;58439;51.046;13.692;2022-10-26T04:09:35;100367.41;;;7.68
70819;BMP280;58439;51.046;13.692;2022-10-26T04:23:04;100366.41;;;7.45
70819;BMP280;58439;51.046;13.692;2022-10-26T04:29:55;100367.41;;;7.44
70819;BMP280;58439;51.046;13.692;2022-10-26T04:32:22;100370.94;;;7.43
70819;BMP280;58439;51.046;13.692;2022-10-26T04:34:49;100374.88;;;7.47
70819;BMP280;58439;51.046;13.692;2022-10-26T04:37:16;100368.84;;;7.46
70819;BMP280;58439;51.046;13.692;2022-10-26T04:39:44;100365.44;;;7.46
70819;BMP280;58439;51.046;13.692;2022-10-26T04:42:11;100368.03;;;7.46
70819;BMP280;58439;51.046;13.692;2022-10-26T04:44:39;100361.34;;;7.43
70819;BMP280;58439;51.046;13.692;2022-10-26T04:47:06;100353.72;;;7.42
70819;BMP280;58439;51.046;13.692;2022-10-26T04:49:33;100358.75;;;7.43
70819;BMP280;58439;51.046;13.692;2022-10-26T04:52:05;100358.59;;;7.45
70819;BMP280;58439;51.046;13.692;2022-10-26T04:54:32;100360.53;;;7.43
70819;BMP280;58439;51.046;13.692;2022-10-26T04:56:59;100359.22;;;7.39
70819;BMP280;58439;51.046;13.692;2022-10-26T04:59:26;100355.81;;;7.38
70819;BMP280;58439;51.046;13.692;2022-10-26T05:01:53;100351.94;;;7.34
70819;BMP280;58439;51.046;13.692;2022-10-26T05:04:21;100353.88;;;7.32
70819;BMP280;58439;51.046;13.692;2022-10-26T05:06:48;100351.94;;;7.34
70819;BMP280;58439;51.046;13.692;2022-10-26T05:09:17;100354.69;;;7.33
70819;BMP280;58439;51.046;13.692;2022-10-26T05:11:44;100353.03;;;7.32
70819;BMP280;58439;51.046;13.692;2022-10-26T05:14:12;100347.69;;;7.33
70819;BMP280;58439;51.046;13.692;2022-10-26T05:20:00;100336.16;;;7.36
70819;BMP280;58439;51.046;13.692;2022-10-26T05:23:33;100343.94;;;7.28
70819;BMP280;58439;51.046;13.692;2022-10-26T05:26:26;100345.72;;;7.27
70819;BMP280;58439;51.046;13.692;2022-10-26T05:29:36;100340.03;;;7.24
70819;BMP280;58439;51.046;13.692;2022-10-26T05:32:43;100345.25;;;7.24
70819;BMP280;58439;51.046;13.692;2022-10-26T05:35:20;100346.22;;;7.23
70819;BMP280;58439;51.046;13.692;2022-10-26T07:00:07;100399.25;;;9.06
70819;BMP280;58439;51.046;13.692;2022-10-26T07:02:38;100403.44;;;9.15
70819;BMP280;58439;51.046;13.692;2022-10-26T07:05:36;100407.88;;;9.29
70819;BMP280;58439;51.046;13.692;2022-10-26T07:08:08;100413.88;;;9.38
70819;BMP280;58439;51.046;13.692;2022-10-26T07:10:40;100407.59;;;9.47
70819;BMP280;58439;51.046;13.692;2022-10-26T07:13:09;100406.03;;;9.61
70819;BMP280;58439;51.046;13.692;2022-10-26T07:15:38;100413.28;;;9.74
70819;BMP280;58439;51.046;13.692;2022-10-26T14:46:31;100422.59;;;22.13
70819;BMP280;58439;51.046;13.692;2022-10-26T14:56:55;100439.00;;;21.12
70819;BMP280;58439;51.046;13.692;2022-10-26T15:00:45;100437.34;;;20.64
70819;BMP280;58439;51.046;13.692;2022-10-26T15:03:20;100430.38;;;20.25
70819;BMP280;58439;51.046;13.692;2022-10-26T15:07:01;100432.28;;;19.81
70819;BMP280;58439;51.046;13.692;2022-10-26T15:09:50;100438.50;;;19.48
70819;BMP280;58439;51.046;13.692;2022-10-26T15:12:38;100439.88;;;19.12
70819;BMP280;58439;51.046;13.692;2022-10-26T15:15:22;100433.38;;;18.86
70819;BMP280;58439;51.046;13.692;2022-10-26T15:18:28;100435.91;;;18.64
70819;BMP280;58439;51.046;13.692;2022-10-26T15:21:45;100434.34;;;18.35
70819;BMP280;58439;51.046;13.692;2022-10-26T15:24:39;100444.31;;;18.16
70819;BMP280;58439;51.046;13.692;2022-10-26T15:27:21;100444.03;;;18.01
70819;BMP280;58439;51.046;13.692;2022-10-26T15:36:30;100451.94;;;17.49
70819;BMP280;58439;51.046;13.692;2022-10-26T15:39:27;100455.38;;;17.38
70819;BMP280;58439;51.046;13.692;2022-10-26T15:42:08;100460.78;;;17.31
70819;BMP280;58439;51.046;13.692;2022-10-26T15:44:54;100453.22;;;17.23
70819;BMP280;58439;51.046;13.692;2022-10-26T15:50:58;100452.47;;;16.93
70819;BMP280;58439;51.046;13.692;2022-10-26T15:53:39;100464.03;;;16.80
70819;BMP280;58439;51.046;13.692;2022-10-26T15:56:46;100465.03;;;16.67
70819;BMP280;58439;51.046;13.692;2022-10-26T15:59:37;100468.56;;;16.61
70819;BMP280;58439;51.046;13.692;2022-10-26T16:02:20;100481.50;;;16.51
70819;BMP280;58439;51.046;13.692;2022-10-26T16:05:06;100484.69;;;16.41
70819;BMP280;58439;51.046;13.692;2022-10-26T16:07:44;100491.06;;;16.34
70819;BMP280;58439;51.046;13.692;2022-10-26T16:10:34;100493.56;;;16.29
70819;BMP280;58439;51.046;13.692;2022-10-26T16:13:23;100491.78;;;16.22
70819;BMP280;58439;51.046;13.692;2022-10-26T16:16:30;100484.78;;;16.16
70819;BMP280;58439;51.046;13.692;2022-10-26T16:19:34;100485.25;;;16.07
70819;BMP280;58439;51.046;13.692;2022-10-26T16:22:32;100490.63;;;16.00
70819;BMP280;58439;51.046;13.692;2022-10-26T16:25:08;100496.97;;;15.92
70819;BMP280;58439;51.046;13.692;2022-10-26T16:28:04;100501.31;;;15.87
70819;BMP280;58439;51.046;13.692;2022-10-26T16:30:41;100501.16;;;15.82
70819;BMP280;58439;51.046;13.692;2022-10-26T16:33:10;100504.66;;;15.76
70819;BMP280;58439;51.046;13.692;2022-10-26T16:39:20;100508.19;;;15.70
70819;BMP280;58439;51.046;13.692;2022-10-26T16:43:43;100521.19;;;15.64
70819;BMP280;58439;51.046;13.692;2022-10-26T16:46:20;100511.94;;;15.55
70819;BMP280;58439;51.046;13.692;2022-10-26T16:48:48;100513.38;;;15.51
70819;BMP280;58439;51.046;13.692;2022-10-26T16:51:23;100523.78;;;15.46
70819;BMP280;58439;51.046;13.692;2022-10-26T16:54:01;100525.25;;;15.42
70819;BMP280;58439;51.046;13.692;2022-10-26T17:01:25;100517.00;;;15.25
70819;BMP280;58439;51.046;13.692;2022-10-26T17:03:52;100526.75;;;15.25
70819;BMP280;58439;51.046;13.692;2022-10-26T17:06:20;100528.81;;;15.23
70819;BMP280;58439;51.046;13.692;2022-10-26T17:08:48;100530.84;;;15.21
70819;BMP280;58439;51.046;13.692;2022-10-26T17:11:20;100520.72;;;15.18
70819;BMP280;58439;51.046;13.692;2022-10-26T17:13:52;100526.00;;;15.18
70819;BMP280;58439;51.046;13.692;2022-10-26T17:16:22;100543.63;;;15.17
70819;BMP280;58439;51.046;13.692;2022-10-26T17:18:53;100544.25;;;15.13
70819;BMP280;58439;51.046;13.692;2022-10-26T17:21:33;100541.47;;;15.07
70819;BMP280;58439;51.046;13.692;2022-10-26T17:24:01;100546.09;;;15.05
70819;BMP280;58439;51.046;13.692;2022-10-26T17:26:28;100543.31;;;15.00
70819;BMP280;58439;51.046;13.692;2022-10-26T17:28:57;100546.19;;;14.99
70819;BMP280;58439;51.046;13.692;2022-10-26T17:31:25;100549.22;;;14.96
70819;BMP280;58439;51.046;13.692;2022-10-26T17:33:53;100562.59;;;14.94
70819;BMP280;58439;51.046;13.692;2022-10-26T17:36:23;100569.13;;;14.92
70819;BMP280;58439;51.046;13.692;2022-10-26T17:38:53;100578.22;;;14.89
70819;BMP280;58439;51.046;13.692;2022-10-26T17:41:23;100575.03;;;14.87
70819;BMP280;58439;51.046;13.692;2022-10-26T17:43:52;100578.06;;;14.84
70819;BMP280;58439;51.046;13.692;2022-10-26T17:46:24;100583.75;;;14.81
70819;BMP280;58439;51.046;13.692;2022-10-26T17:48:59;100593.88;;;14.77
70819;BMP280;58439;51.046;13.692;2022-10-26T17:51:28;100598.75;;;14.74
70819;BMP280;58439;51.046;13.692;2022-10-26T17:53:57;100593.47;;;14.74
70819;BMP280;58439;51.046;13.692;2022-10-26T17:56:28;100598.16;;;14.72
70819;BMP280;58439;51.046;13.692;2022-10-26T17:59:04;100598.34;;;14.70
70819;BMP280;58439;51.046;13.692;2022-10-26T18:01:31;100607.50;;;14.68
70819;BMP280;58439;51.046;13.692;2022-10-26T18:03:59;100607.06;;;14.64
70819;BMP280;58439;51.046;13.692;2022-10-26T18:06:27;100605.06;;;14.60
70819;BMP280;58439;51.046;13.692;2022-10-26T18:08:57;100616.63;;;14.59
70819;BMP280;58439;51.046;13.692;2022-10-26T18:11:25;100632.41;;;14.59
70819;BMP280;58439;51.046;13.692;2022-10-26T18:13:56;100622.09;;;14.57
70819;BMP280;58439;51.046;13.692;2022-10-26T18:16:26;100625.31;;;14.59
70819;BMP280;58439;51.046;13.692;2022-10-26T18:19:00;100628.16;;;14.58
70819;BMP280;58439;51.046;13.692;2022-10-26T18:21:32;100626.75;;;14.55
70819;BMP280;58439;51.046;13.692;2022-10-26T18:28:36;100634.84;;;14.54
70819;BMP280;58439;51.046;13.692;2022-10-26T18:31:42;100640.94;;;14.47
70819;BMP280;58439;51.046;13.692;2022-10-26T18:34:17;100649.47;;;14.43
70819;BMP280;58439;51.046;13.692;2022-10-26T18:36:46;100645.63;;;14.39
70819;BMP280;58439;51.046;13.692;2022-10-26T18:39:27;100649.44;;;14.30
70819;BMP280;58439;51.046;13.692;2022-10-26T18:41:54;100658.16;;;14.17
70819;BMP280;58439;51.046;13.692;2022-10-26T18:44:21;100659.19;;;14.09
70819;BMP280;58439;51.046;13.692;2022-10-26T18:50:29;100666.06;;;13.97
70819;BMP280;58439;51.046;13.692;2022-10-26T18:52:57;100660.78;;;13.97
70819;BMP280;58439;51.046;13.692;2022-10-26T18:55:24;100662.78;;;13.95
70819;BMP280;58439;51.046;13.692;2022-10-26T18:57:52;100666.03;;;13.91
70819;BMP280;58439;51.046;13.692;2022-10-26T19:00:20;100672.69;;;13.86
70819;BMP280;58439;51.046;13.692;2022-10-26T19:02:48;100679.34;;;13.82
70819;BMP280;58439;51.046;13.692;2022-10-26T19:05:18;100683.41;;;13.85
70819;BMP280;58439;51.046;13.692;2022-10-26T19:12:35;100691.03;;;13.67
70819;BMP280;58439;51.046;13.692;2022-10-26T19:15:04;100694.06;;;13.57
70819;BMP280;58439;51.046;13.692;2022-10-26T19:17:33;100687.94;;;13.50
70819;BMP280;58439;51.046;13.692;2022-10-26T19:20:57;100691.56;;;13.42
70819;BMP280;58439;51.046;13.692;2022-10-26T19:23:35;100704.84;;;13.34
70819;BMP280;58439;51.046;13.692;2022-10-26T19:26:06;100709.91;;;13.29
70819;BMP280;58439;51.046;13.692;2022-10-26T19:28:34;100709.66;;;13.24
70819;BMP280;58439;51.046;13.692;2022-10-26T19:31:07;100714.25;;;13.15
70819;BMP280;58439;51.046;13.692;2022-10-26T19:33:35;100720.09;;;13.11
70819;BMP280;58439;51.046;13.692;2022-10-26T19:36:17;100722.28;;;13.07
70819;BMP280;58439;51.046;13.692;2022-10-26T19:38:45;100733.56;;;13.01
70819;BMP280;58439;51.046;13.692;2022-10-26T19:41:16;100737.94;;;12.94
70819;BMP280;58439;51.046;13.692;2022-10-26T19:43:49;100728.84;;;12.90
70819;BMP280;58439;51.046;13.692;2022-10-26T19:46:35;100730.06;;;12.94
70819;BMP280;58439;51.046;13.692;2022-10-26T19:52:54;100738.28;;;13.12
70819;BMP280;58439;51.046;13.692;2022-10-26T19:56:36;100742.72;;;13.12
70819;BMP280;58439;51.046;13.692;2022-10-26T19:59:57;100734.69;;;13.13
70819;BMP280;58439;51.046;13.692;2022-10-26T20:02:24;100733.41;;;13.09
70819;BMP280;58439;51.046;13.692;2022-10-26T20:04:52;100742.69;;;13.05
70819;BMP280;58439;51.046;13.692;2022-10-26T20:07:30;100740.44;;;13.02
70819;BMP280;58439;51.046;13.692;2022-10-26T20:09:57;100751.53;;;12.97
70819;BMP280;58439;51.046;13.692;2022-10-26T20:12:24;100767.09;;;12.99
70819;BMP280;58439;51.046;13.692;2022-10-26T20:14:59;100765.19;;;12.86
70819;BMP280;58439;51.046;13.692;2022-10-26T20:17:32;100765.31;;;12.78
70819;BMP280;58439;51.046;13.692;2022-10-26T20:20:00;100766.31;;;12.77
70819;BMP280;58439;51.046;13.692;2022-10-26T20:22:27;100771.56;;;12.77
70819;BMP280;58439;51.046;13.692;2022-10-26T20:24:55;100771.88;;;12.67
70819;BMP280;58439;51.046;13.692;2022-10-26T20:27:23;100774.25;;;12.62
70819;BMP280;58439;51.046;13.692;2022-10-26T20:29:51;100774.06;;;12.64
70819;BMP280;58439;51.046;13.692;2022-10-26T20:32:19;100777.69;;;12.63
70819;BMP280;58439;51.046;13.692;2022-10-26T20:34:46;100774.97;;;12.50
70819;BMP280;58439;51.046;13.692;2022-10-26T20:37:16;100782.94;;;12.41
70819;BMP280;58439;51.046;13.692;2022-10-26T20:39:44;100779.66;;;12.39
70819;BMP280;58439;51.046;13.692;2022-10-26T20:42:24;100780.59;;;12.32
70819;BMP280;58439;51.046;13.692;2022-10-26T20:45:30;100780.47;;;12.19
70819;BMP280;58439;51.046;13.692;2022-10-26T20:47:59;100779.03;;;12.16
70819;BMP280;58439;51.046;13.692;2022-10-26T20:50:29;100782.47;;;12.16
70819;BMP280;58439;51.046;13.692;2022-10-26T20:55:58;100782.88;;;11.99
70819;BMP280;58439;51.046;13.692;2022-10-26T20:58:59;100789.63;;;11.93
70819;BMP280;58439;51.046;13.692;2022-10-26T21:02:13;100799.75;;;11.96
70819;BMP280;58439;51.046;13.692;2022-10-26T21:05:06;100796.06;;;11.91
70819;BMP280;58439;51.046;13.692;2022-10-26T21:07:33;100794.25;;;11.91
70819;BMP280;58439;51.046;13.692;2022-10-26T21:10:02;100801.84;;;11.86
70819;BMP280;58439;51.046;13.692;2022-10-26T21:12:30;100804.94;;;11.75
70819;BMP280;58439;51.046;13.692;2022-10-26T21:14:59;100796.78;;;11.70
70819;BMP280;58439;51.046;13.692;2022-10-26T21:17:28;100800.59;;;11.67
70819;BMP280;58439;51.046;13.692;2022-10-26T21:19:56;100800.97;;;11.64
70819;BMP280;58439;51.046;13.692;2022-10-26T21:22:44;100804.47;;;11.56
70819;BMP280;58439;51.046;13.692;2022-10-26T21:25:13;100807.19;;;11.48
70819;BMP280;58439;51.046;13.692;2022-10-26T21:28:18;100806.25;;;11.41
70819;BMP280;58439;51.046;13.692;2022-10-26T21:32:20;100802.91;;;11.32
70819;BMP280;58439;51.046;13.692;2022-10-26T21:34:51;100817.38;;;11.28
70819;BMP280;58439;51.046;13.692;2022-10-26T21:37:24;100813.13;;;11.27
70819;BMP280;58439;51.046;13.692;2022-10-26T21:39:55;100812.31;;;11.27
70819;BMP280;58439;51.046;13.692;2022-10-26T21:42:23;100821.78;;;11.28
70819;BMP280;58439;51.046;13.692;2022-10-26T21:48:50;100821.66;;;11.21
70819;BMP280;58439;51.046;13.692;2022-10-26T21:52:40;100828.25;;;11.17
70819;BMP280;58439;51.046;13.692;2022-10-26T21:55:29;100826.97;;;11.13
70819;BMP280;58439;51.046;13.692;2022-10-26T21:57:59;100830.38;;;11.14
70819;BMP280;58439;51.046;13.692;2022-10-26T22:00:46;100832.56;;;11.10
70819;BMP280;58439;51.046;13.692;2022-10-26T22:03:29;100836.16;;;11.09
70819;BMP280;58439;51.046;13.692;2022-10-26T22:10:35;100830.50;;;10.97
70819;BMP280;58439;51.046;13.692;2022-10-26T22:19:44;100844.94;;;10.93
70819;BMP280;58439;51.046;13.692;2022-10-26T22:25:25;100839.44;;;10.88
70819;BMP280;58439;51.046;13.692;2022-10-26T22:29:14;100837.97;;;10.86
70819;BMP280;58439;51.046;13.692;2022-10-26T22:43:26;100835.41;;;11.00
70819;BMP280;58439;51.046;13.692;2022-10-26T22:46:47;100838.66;;;11.02
70819;BMP280;58439;51.046;13.692;2022-10-26T22:49:52;100840.81;;;10.99
70819;BMP280;58439;51.046;13.692;2022-10-26T22:53:05;100849.88;;;10.96
70819;BMP280;58439;51.046;13.692;2022-10-26T22:55:45;100850.38;;;10.92
70819;BMP280;58439;51.046;13.692;2022-10-26T22:58:53;100852.97;;;10.92
70819;BMP280;58439;51.046;13.692;2022-10-26T23:02:04;100853.84;;;10.84
70819;BMP280;58439;51.046;13.692;2022-10-26T23:09:43;100866.81;;;10.78
70819;BMP280;58439;51.046;13.692;2022-10-26T23:20:40;100879.91;;;10.78
70819;BMP280;58439;51.046;13.692;2022-10-26T23:24:08;100884.47;;;10.75
70819;BMP280;58439;51.046;13.692;2022-10-26T23:37:01;100886.50;;;10.65
70819;BMP280;58439;51.046;13.692;2022-10-26T23:40:34;100885.34;;;10.68
70819;BMP280;58439;51.046;13.692;2022-10-26T23:46:41;100885.69;;;10.65
70819;BMP280;58439;51.046;13.692;2022-10-26T23:49:42;100887.66;;;10.63
70819;BMP280;58439;51.046;13.692;2022-10-26T23:52:50;100894.06;;;10.60
70819;BMP280;58439;51.046;13.692;2022-10-26T23:55:32;100896.13;;;10.65
